sensor_id;sensor_type;location;lat;lon;timestamp;P1;durP1;ratioP1;P2;durP2;ratioP2
34102;SDS011;20381;54.498;18.206;2022-07-01T00:00:10;9.35;;;7.25;;
34102;SDS011;20381;54.498;18.206;2022-07-01T00:02:40;8.70;;;6.70;;
34102;SDS011;20381;54.498;18.206;2022-07-01T00:05:07;7.30;;;6.05;;
34102;SDS011;20381;54.498;18.206;2022-07-01T00:07:34;8.65;;;6.22;;
34102;SDS011;20381;54.498;18.206;2022-07-01T00:10:01;8.60;;;5.90;;
34102;SDS011;20381;54.498;18.206;2022-07-01T00:12:29;9.60;;;6.85;;
34102;SDS011;20381;54.498;18.206;2022-07-01T00:14:56;8.03;;;6.75;;
34102;SDS011;20381;54.498;18.206;2022-07-01T00:17:23;7.35;;;6.65;;
34102;SDS011;20381;54.498;18.206;2022-07-01T00:19:49;10.32;;;6.10;;
34102;SDS011;20381;54.498;18.206;2022-07-01T00:22:16;8.05;;;7.25;;
34102;SDS011;20381;54.498;18.206;2022-07-01T00:24:43;9.68;;;7.05;;
34102;SDS011;20381;54.498;18.206;2022-07-01T00:27:11;9.23;;;7.80;;
34102;SDS011;20381;54.498;18.206;2022-07-01T00:29:41;7.42;;;6.72;;
34102;SDS011;20381;54.498;18.206;2022-07-01T00:32:08;8.68;;;6.97;;
34102;SDS011;20381;54.498;18.206;2022-07-01T00:34:34;7.87;;;7.08;;
34102;SDS011;20381;54.498;18.206;2022-07-01T00:37:01;8.28;;;6.60;;
34102;SDS011;20381;54.498;18.206;2022-07-01T00:39:29;8.48;;;6.83;;
34102;SDS011;20381;54.498;18.206;2022-07-01T00:41:58;8.03;;;7.05;;
34102;SDS011;20381;54.498;18.206;2022-07-01T00:44:27;9.93;;;6.72;;
34102;SDS011;20381;54.498;18.206;2022-07-01T00:46:55;7.70;;;6.58;;
34102;SDS011;20381;54.498;18.206;2022-07-01T00:49:28;7.80;;;7.03;;
34102;SDS011;20381;54.498;18.206;2022-07-01T00:51:56;8.55;;;6.55;;
34102;SDS011;20381;54.498;18.206;2022-07-01T00:54:23;7.83;;;6.40;;
34102;SDS011;20381;54.498;18.206;2022-07-01T00:56:52;10.50;;;7.08;;
34102;SDS011;20381;54.498;18.206;2022-07-01T00:59:19;7.28;;;6.58;;
34102;SDS011;20381;54.498;18.206;2022-07-01T01:01:46;7.25;;;6.58;;
34102;SDS011;20381;54.498;18.206;2022-07-01T01:04:13;9.78;;;6.80;;
34102;SDS011;20381;54.498;18.206;2022-07-01T01:06:40;8.25;;;7.33;;
34102;SDS011;20381;54.498;18.206;2022-07-01T01:09:07;8.03;;;7.15;;
34102;SDS011;20381;54.498;18.206;2022-07-01T01:11:33;10.28;;;7.03;;
34102;SDS011;20381;54.498;18.206;2022-07-01T01:14:01;7.70;;;6.87;;
34102;SDS011;20381;54.498;18.206;2022-07-01T01:16:28;8.33;;;7.53;;
34102;SDS011;20381;54.498;18.206;2022-07-01T01:18:54;10.08;;;7.10;;
34102;SDS011;20381;54.498;18.206;2022-07-01T01:21:21;12.45;;;7.92;;
34102;SDS011;20381;54.498;18.206;2022-07-01T01:23:48;11.97;;;7.47;;
34102;SDS011;20381;54.498;18.206;2022-07-01T01:26:16;10.98;;;7.67;;
34102;SDS011;20381;54.498;18.206;2022-07-01T01:28:47;9.10;;;7.62;;
34102;SDS011;20381;54.498;18.206;2022-07-01T01:31:15;10.25;;;7.72;;
34102;SDS011;20381;54.498;18.206;2022-07-01T01:33:44;8.68;;;7.87;;
34102;SDS011;20381;54.498;18.206;2022-07-01T01:36:11;8.40;;;7.55;;
34102;SDS011;20381;54.498;18.206;2022-07-01T01:38:38;9.38;;;7.95;;
34102;SDS011;20381;54.498;18.206;2022-07-01T01:41:05;13.08;;;7.85;;
34102;SDS011;20381;54.498;18.206;2022-07-01T01:43:33;9.50;;;8.08;;
34102;SDS011;20381;54.498;18.206;2022-07-01T01:46:01;10.90;;;8.58;;
34102;SDS011;20381;54.498;18.206;2022-07-01T01:48:29;13.18;;;7.92;;
34102;SDS011;20381;54.498;18.206;2022-07-01T01:50:57;10.20;;;8.33;;
34102;SDS011;20381;54.498;18.206;2022-07-01T01:53:24;9.88;;;8.13;;
34102;SDS011;20381;54.498;18.206;2022-07-01T01:55:51;9.15;;;8.20;;
34102;SDS011;20381;54.498;18.206;2022-07-01T01:58:18;11.65;;;7.80;;
34102;SDS011;20381;54.498;18.206;2022-07-01T02:00:45;9.78;;;7.83;;
34102;SDS011;20381;54.498;18.206;2022-07-01T02:03:12;14.63;;;8.70;;
34102;SDS011;20381;54.498;18.206;2022-07-01T02:05:39;9.33;;;8.18;;
34102;SDS011;20381;54.498;18.206;2022-07-01T02:08:05;9.95;;;8.70;;
34102;SDS011;20381;54.498;18.206;2022-07-01T02:10:32;10.05;;;8.78;;
34102;SDS011;20381;54.498;18.206;2022-07-01T02:12:59;10.53;;;8.25;;
34102;SDS011;20381;54.498;18.206;2022-07-01T02:15:25;10.32;;;7.87;;
34102;SDS011;20381;54.498;18.206;2022-07-01T02:17:52;12.07;;;8.90;;
34102;SDS011;20381;54.498;18.206;2022-07-01T02:20:20;10.68;;;9.00;;
34102;SDS011;20381;54.498;18.206;2022-07-01T02:22:47;11.12;;;7.50;;
34102;SDS011;20381;54.498;18.206;2022-07-01T02:27:41;8.60;;;7.75;;
34102;SDS011;20381;54.498;18.206;2022-07-01T02:30:08;11.57;;;8.55;;
34102;SDS011;20381;54.498;18.206;2022-07-01T02:32:36;12.55;;;8.30;;
34102;SDS011;20381;54.498;18.206;2022-07-01T02:35:03;11.22;;;8.40;;
34102;SDS011;20381;54.498;18.206;2022-07-01T02:37:30;9.80;;;8.38;;
34102;SDS011;20381;54.498;18.206;2022-07-01T02:39:59;9.75;;;8.38;;
34102;SDS011;20381;54.498;18.206;2022-07-01T02:42:26;13.75;;;9.03;;
34102;SDS011;20381;54.498;18.206;2022-07-01T02:44:53;9.98;;;8.78;;
34102;SDS011;20381;54.498;18.206;2022-07-01T02:47:21;12.95;;;9.25;;
34102;SDS011;20381;54.498;18.206;2022-07-01T02:49:48;10.35;;;8.23;;
34102;SDS011;20381;54.498;18.206;2022-07-01T02:52:17;10.53;;;8.28;;
34102;SDS011;20381;54.498;18.206;2022-07-01T02:54:44;9.88;;;7.83;;
34102;SDS011;20381;54.498;18.206;2022-07-01T02:57:10;10.78;;;8.23;;
34102;SDS011;20381;54.498;18.206;2022-07-01T02:59:37;10.70;;;7.85;;
34102;SDS011;20381;54.498;18.206;2022-07-01T03:02:04;12.63;;;8.10;;
34102;SDS011;20381;54.498;18.206;2022-07-01T03:04:31;11.97;;;8.13;;
34102;SDS011;20381;54.498;18.206;2022-07-01T03:06:58;13.38;;;7.35;;
34102;SDS011;20381;54.498;18.206;2022-07-01T03:09:25;14.05;;;7.90;;
34102;SDS011;20381;54.498;18.206;2022-07-01T03:11:52;10.60;;;7.80;;
34102;SDS011;20381;54.498;18.206;2022-07-01T03:14:19;9.73;;;7.55;;
34102;SDS011;20381;54.498;18.206;2022-07-01T03:16:46;10.63;;;7.70;;
34102;SDS011;20381;54.498;18.206;2022-07-01T03:19:16;12.55;;;8.40;;
34102;SDS011;20381;54.498;18.206;2022-07-01T03:21:43;16.50;;;8.40;;
34102;SDS011;20381;54.498;18.206;2022-07-01T03:24:09;18.23;;;8.63;;
34102;SDS011;20381;54.498;18.206;2022-07-01T03:26:36;11.65;;;7.95;;
34102;SDS011;20381;54.498;18.206;2022-07-01T03:29:03;12.07;;;7.87;;
34102;SDS011;20381;54.498;18.206;2022-07-01T03:31:29;11.20;;;7.37;;
34102;SDS011;20381;54.498;18.206;2022-07-01T03:33:57;8.60;;;7.25;;
34102;SDS011;20381;54.498;18.206;2022-07-01T03:36:23;12.23;;;8.28;;
34102;SDS011;20381;54.498;18.206;2022-07-01T03:38:50;13.72;;;7.17;;
34102;SDS011;20381;54.498;18.206;2022-07-01T03:41:17;9.13;;;7.00;;
34102;SDS011;20381;54.498;18.206;2022-07-01T03:43:44;12.00;;;6.97;;
34102;SDS011;20381;54.498;18.206;2022-07-01T03:46:10;13.25;;;7.05;;
34102;SDS011;20381;54.498;18.206;2022-07-01T03:48:38;11.90;;;7.40;;
34102;SDS011;20381;54.498;18.206;2022-07-01T03:53:32;15.63;;;7.58;;
34102;SDS011;20381;54.498;18.206;2022-07-01T03:56:17;12.13;;;6.83;;
34102;SDS011;20381;54.498;18.206;2022-07-01T03:58:43;9.73;;;6.87;;
34102;SDS011;20381;54.498;18.206;2022-07-01T04:01:10;9.25;;;7.10;;
34102;SDS011;20381;54.498;18.206;2022-07-01T04:03:37;15.98;;;8.00;;
34102;SDS011;20381;54.498;18.206;2022-07-01T04:06:04;11.55;;;7.22;;
34102;SDS011;20381;54.498;18.206;2022-07-01T04:08:31;13.80;;;7.37;;
34102;SDS011;20381;54.498;18.206;2022-07-01T04:10:58;23.30;;;7.97;;
34102;SDS011;20381;54.498;18.206;2022-07-01T04:13:25;16.73;;;7.50;;
34102;SDS011;20381;54.498;18.206;2022-07-01T04:15:53;10.70;;;6.85;;
34102;SDS011;20381;54.498;18.206;2022-07-01T04:18:20;12.15;;;6.40;;
34102;SDS011;20381;54.498;18.206;2022-07-01T04:20:47;14.07;;;6.95;;
34102;SDS011;20381;54.498;18.206;2022-07-01T04:23:16;9.38;;;6.03;;
34102;SDS011;20381;54.498;18.206;2022-07-01T04:25:43;11.93;;;6.47;;
34102;SDS011;20381;54.498;18.206;2022-07-01T04:28:09;9.73;;;6.30;;
34102;SDS011;20381;54.498;18.206;2022-07-01T04:30:36;10.40;;;5.50;;
34102;SDS011;20381;54.498;18.206;2022-07-01T04:33:03;9.15;;;5.65;;
34102;SDS011;20381;54.498;18.206;2022-07-01T04:35:29;11.97;;;5.87;;
34102;SDS011;20381;54.498;18.206;2022-07-01T04:37:56;13.05;;;5.60;;
34102;SDS011;20381;54.498;18.206;2022-07-01T04:40:23;11.35;;;5.67;;
34102;SDS011;20381;54.498;18.206;2022-07-01T04:44:32;7.62;;;5.40;;
34102;SDS011;20381;54.498;18.206;2022-07-01T04:47:03;11.55;;;5.70;;
34102;SDS011;20381;54.498;18.206;2022-07-01T04:49:31;12.28;;;5.47;;
34102;SDS011;20381;54.498;18.206;2022-07-01T04:51:58;7.33;;;5.08;;
34102;SDS011;20381;54.498;18.206;2022-07-01T04:54:26;9.18;;;5.78;;
34102;SDS011;20381;54.498;18.206;2022-07-01T04:56:52;6.92;;;4.55;;
34102;SDS011;20381;54.498;18.206;2022-07-01T04:59:19;10.38;;;5.12;;
34102;SDS011;20381;54.498;18.206;2022-07-01T05:02:02;11.57;;;5.72;;
34102;SDS011;20381;54.498;18.206;2022-07-01T05:05:01;14.47;;;4.65;;
34102;SDS011;20381;54.498;18.206;2022-07-01T05:07:29;16.23;;;4.75;;
34102;SDS011;20381;54.498;18.206;2022-07-01T05:09:56;9.75;;;4.53;;
34102;SDS011;20381;54.498;18.206;2022-07-01T05:12:24;8.18;;;4.30;;
34102;SDS011;20381;54.498;18.206;2022-07-01T05:14:51;9.85;;;4.42;;
34102;SDS011;20381;54.498;18.206;2022-07-01T05:17:18;13.45;;;4.95;;
34102;SDS011;20381;54.498;18.206;2022-07-01T05:19:44;8.00;;;4.80;;
34102;SDS011;20381;54.498;18.206;2022-07-01T05:22:29;12.45;;;4.33;;
34102;SDS011;20381;54.498;18.206;2022-07-01T05:24:56;9.60;;;4.22;;
34102;SDS011;20381;54.498;18.206;2022-07-01T05:27:23;7.75;;;4.10;;
34102;SDS011;20381;54.498;18.206;2022-07-01T05:29:50;8.85;;;4.35;;
34102;SDS011;20381;54.498;18.206;2022-07-01T05:32:18;7.75;;;4.10;;
34102;SDS011;20381;54.498;18.206;2022-07-01T05:34:44;8.93;;;4.45;;
34102;SDS011;20381;54.498;18.206;2022-07-01T05:37:11;11.05;;;4.00;;
34102;SDS011;20381;54.498;18.206;2022-07-01T05:39:38;9.90;;;4.17;;
34102;SDS011;20381;54.498;18.206;2022-07-01T05:42:05;8.50;;;4.62;;
34102;SDS011;20381;54.498;18.206;2022-07-01T05:44:32;8.75;;;4.60;;
34102;SDS011;20381;54.498;18.206;2022-07-01T05:46:58;12.03;;;4.78;;
34102;SDS011;20381;54.498;18.206;2022-07-01T05:49:25;8.85;;;4.58;;
34102;SDS011;20381;54.498;18.206;2022-07-01T05:51:52;9.65;;;4.62;;
34102;SDS011;20381;54.498;18.206;2022-07-01T05:54:19;8.98;;;5.03;;
34102;SDS011;20381;54.498;18.206;2022-07-01T05:56:45;7.58;;;4.00;;
34102;SDS011;20381;54.498;18.206;2022-07-01T05:59:13;14.28;;;4.58;;
34102;SDS011;20381;54.498;18.206;2022-07-01T06:01:40;8.60;;;4.62;;
34102;SDS011;20381;54.498;18.206;2022-07-01T06:04:06;10.48;;;4.22;;
34102;SDS011;20381;54.498;18.206;2022-07-01T06:06:33;8.05;;;3.92;;
34102;SDS011;20381;54.498;18.206;2022-07-01T06:09:00;6.78;;;4.37;;
34102;SDS011;20381;54.498;18.206;2022-07-01T06:11:26;9.30;;;4.95;;
34102;SDS011;20381;54.498;18.206;2022-07-01T06:13:53;6.85;;;4.15;;
34102;SDS011;20381;54.498;18.206;2022-07-01T06:16:20;13.28;;;4.85;;
34102;SDS011;20381;54.498;18.206;2022-07-01T06:18:47;7.33;;;4.55;;
34102;SDS011;20381;54.498;18.206;2022-07-01T06:21:13;9.33;;;4.28;;
34102;SDS011;20381;54.498;18.206;2022-07-01T06:23:41;9.95;;;4.45;;
34102;SDS011;20381;54.498;18.206;2022-07-01T06:26:08;7.55;;;4.22;;
34102;SDS011;20381;54.498;18.206;2022-07-01T06:28:35;8.50;;;4.60;;
34102;SDS011;20381;54.498;18.206;2022-07-01T06:31:02;7.95;;;4.25;;
34102;SDS011;20381;54.498;18.206;2022-07-01T06:33:30;10.88;;;4.55;;
34102;SDS011;20381;54.498;18.206;2022-07-01T06:35:58;8.30;;;4.65;;
34102;SDS011;20381;54.498;18.206;2022-07-01T06:38:25;8.63;;;4.22;;
34102;SDS011;20381;54.498;18.206;2022-07-01T06:40:52;8.85;;;5.05;;
34102;SDS011;20381;54.498;18.206;2022-07-01T06:43:37;9.90;;;5.28;;
34102;SDS011;20381;54.498;18.206;2022-07-01T06:46:04;7.37;;;5.03;;
34102;SDS011;20381;54.498;18.206;2022-07-01T06:48:31;9.18;;;4.70;;
34102;SDS011;20381;54.498;18.206;2022-07-01T06:50:58;10.03;;;4.95;;
34102;SDS011;20381;54.498;18.206;2022-07-01T06:53:25;10.70;;;5.22;;
34102;SDS011;20381;54.498;18.206;2022-07-01T06:55:51;8.03;;;4.78;;
34102;SDS011;20381;54.498;18.206;2022-07-01T06:58:18;6.55;;;4.05;;
34102;SDS011;20381;54.498;18.206;2022-07-01T07:00:45;9.25;;;4.90;;
34102;SDS011;20381;54.498;18.206;2022-07-01T07:03:12;9.48;;;4.30;;
34102;SDS011;20381;54.498;18.206;2022-07-01T07:05:38;11.68;;;4.75;;
34102;SDS011;20381;54.498;18.206;2022-07-01T07:08:05;6.90;;;4.40;;
34102;SDS011;20381;54.498;18.206;2022-07-01T07:10:32;10.45;;;5.05;;
34102;SDS011;20381;54.498;18.206;2022-07-01T07:12:59;9.18;;;4.70;;
34102;SDS011;20381;54.498;18.206;2022-07-01T07:15:26;8.43;;;4.87;;
34102;SDS011;20381;54.498;18.206;2022-07-01T07:17:53;10.63;;;4.85;;
34102;SDS011;20381;54.498;18.206;2022-07-01T07:20:21;8.43;;;4.80;;
34102;SDS011;20381;54.498;18.206;2022-07-01T07:22:50;8.38;;;4.55;;
34102;SDS011;20381;54.498;18.206;2022-07-01T07:25:17;15.15;;;5.12;;
34102;SDS011;20381;54.498;18.206;2022-07-01T07:27:44;9.33;;;5.20;;
34102;SDS011;20381;54.498;18.206;2022-07-01T07:30:15;11.18;;;4.97;;
34102;SDS011;20381;54.498;18.206;2022-07-01T07:32:43;10.05;;;5.37;;
34102;SDS011;20381;54.498;18.206;2022-07-01T07:35:10;14.85;;;5.03;;
34102;SDS011;20381;54.498;18.206;2022-07-01T07:37:38;14.73;;;5.05;;
34102;SDS011;20381;54.498;18.206;2022-07-01T07:40:06;7.83;;;5.05;;
34102;SDS011;20381;54.498;18.206;2022-07-01T07:42:37;8.50;;;5.17;;
34102;SDS011;20381;54.498;18.206;2022-07-01T07:45:05;10.72;;;5.15;;
34102;SDS011;20381;54.498;18.206;2022-07-01T07:47:47;8.93;;;5.28;;
34102;SDS011;20381;54.498;18.206;2022-07-01T07:50:29;8.43;;;5.17;;
34102;SDS011;20381;54.498;18.206;2022-07-01T07:53:25;12.28;;;5.37;;
34102;SDS011;20381;54.498;18.206;2022-07-01T07:55:51;13.45;;;6.00;;
34102;SDS011;20381;54.498;18.206;2022-07-01T07:58:18;12.20;;;5.40;;
34102;SDS011;20381;54.498;18.206;2022-07-01T08:00:45;10.68;;;5.42;;
34102;SDS011;20381;54.498;18.206;2022-07-01T08:03:12;10.03;;;5.15;;
34102;SDS011;20381;54.498;18.206;2022-07-01T08:05:39;13.05;;;5.40;;
34102;SDS011;20381;54.498;18.206;2022-07-01T08:08:07;15.20;;;5.30;;
34102;SDS011;20381;54.498;18.206;2022-07-01T08:10:34;10.43;;;5.12;;
34102;SDS011;20381;54.498;18.206;2022-07-01T08:13:01;15.23;;;6.00;;
34102;SDS011;20381;54.498;18.206;2022-07-01T08:15:30;13.62;;;5.50;;
34102;SDS011;20381;54.498;18.206;2022-07-01T08:17:58;15.93;;;5.80;;
34102;SDS011;20381;54.498;18.206;2022-07-01T08:20:25;14.05;;;5.45;;
34102;SDS011;20381;54.498;18.206;2022-07-01T08:22:53;19.30;;;5.42;;
34102;SDS011;20381;54.498;18.206;2022-07-01T08:27:06;13.80;;;5.90;;
34102;SDS011;20381;54.498;18.206;2022-07-01T08:29:33;14.07;;;5.65;;
34102;SDS011;20381;54.498;18.206;2022-07-01T08:32:00;10.03;;;5.22;;
34102;SDS011;20381;54.498;18.206;2022-07-01T08:34:28;11.43;;;5.83;;
34102;SDS011;20381;54.498;18.206;2022-07-01T08:36:56;17.48;;;5.70;;
34102;SDS011;20381;54.498;18.206;2022-07-01T08:39:23;19.35;;;5.75;;
34102;SDS011;20381;54.498;18.206;2022-07-01T08:41:50;13.72;;;5.97;;
34102;SDS011;20381;54.498;18.206;2022-07-01T08:44:17;11.20;;;5.22;;
34102;SDS011;20381;54.498;18.206;2022-07-01T08:46:45;15.15;;;5.17;;
34102;SDS011;20381;54.498;18.206;2022-07-01T08:49:12;10.70;;;4.42;;
34102;SDS011;20381;54.498;18.206;2022-07-01T08:51:39;12.13;;;5.00;;
34102;SDS011;20381;54.498;18.206;2022-07-01T08:54:11;8.33;;;4.60;;
34102;SDS011;20381;54.498;18.206;2022-07-01T08:56:35;10.15;;;4.70;;
34102;SDS011;20381;54.498;18.206;2022-07-01T08:59:09;7.65;;;4.50;;
34102;SDS011;20381;54.498;18.206;2022-07-01T09:01:39;8.85;;;4.33;;
34102;SDS011;20381;54.498;18.206;2022-07-01T09:04:17;8.98;;;4.97;;
34102;SDS011;20381;54.498;18.206;2022-07-01T09:06:46;6.60;;;3.72;;
34102;SDS011;20381;54.498;18.206;2022-07-01T09:09:29;7.25;;;4.10;;
34102;SDS011;20381;54.498;18.206;2022-07-01T09:12:07;7.97;;;3.80;;
34102;SDS011;20381;54.498;18.206;2022-07-01T09:14:34;6.33;;;3.70;;
34102;SDS011;20381;54.498;18.206;2022-07-01T09:17:06;8.73;;;4.12;;
34102;SDS011;20381;54.498;18.206;2022-07-01T09:19:36;14.15;;;3.60;;
34102;SDS011;20381;54.498;18.206;2022-07-01T09:22:05;9.10;;;3.33;;
34102;SDS011;20381;54.498;18.206;2022-07-01T09:24:36;6.72;;;3.35;;
34102;SDS011;20381;54.498;18.206;2022-07-01T09:27:07;9.05;;;2.98;;
34102;SDS011;20381;54.498;18.206;2022-07-01T09:29:46;8.10;;;2.90;;
34102;SDS011;20381;54.498;18.206;2022-07-01T09:32:22;5.75;;;2.20;;
34102;SDS011;20381;54.498;18.206;2022-07-01T09:34:48;5.53;;;2.10;;
34102;SDS011;20381;54.498;18.206;2022-07-01T09:37:18;7.95;;;2.52;;
34102;SDS011;20381;54.498;18.206;2022-07-01T09:39:54;7.12;;;2.92;;
34102;SDS011;20381;54.498;18.206;2022-07-01T09:42:24;9.30;;;2.80;;
34102;SDS011;20381;54.498;18.206;2022-07-01T09:47:34;8.38;;;2.80;;
34102;SDS011;20381;54.498;18.206;2022-07-01T09:50:06;5.05;;;2.67;;
34102;SDS011;20381;54.498;18.206;2022-07-01T09:52:34;7.42;;;2.92;;
34102;SDS011;20381;54.498;18.206;2022-07-01T09:55:02;7.70;;;2.95;;
34102;SDS011;20381;54.498;18.206;2022-07-01T09:57:49;8.58;;;2.80;;
34102;SDS011;20381;54.498;18.206;2022-07-01T10:00:16;8.45;;;3.30;;
34102;SDS011;20381;54.498;18.206;2022-07-01T10:02:44;7.22;;;3.05;;
34102;SDS011;20381;54.498;18.206;2022-07-01T10:05:15;7.17;;;3.25;;
34102;SDS011;20381;54.498;18.206;2022-07-01T10:13:21;6.10;;;3.30;;
34102;SDS011;20381;54.498;18.206;2022-07-01T10:15:52;6.05;;;3.20;;
34102;SDS011;20381;54.498;18.206;2022-07-01T10:18:25;9.65;;;3.52;;
34102;SDS011;20381;54.498;18.206;2022-07-01T10:20:54;8.93;;;4.28;;
34102;SDS011;20381;54.498;18.206;2022-07-01T10:23:28;9.23;;;3.70;;
34102;SDS011;20381;54.498;18.206;2022-07-01T10:26:03;8.30;;;4.20;;
34102;SDS011;20381;54.498;18.206;2022-07-01T10:28:53;11.50;;;3.50;;
34102;SDS011;20381;54.498;18.206;2022-07-01T10:31:34;11.40;;;4.08;;
34102;SDS011;20381;54.498;18.206;2022-07-01T10:34:04;7.55;;;3.55;;
34102;SDS011;20381;54.498;18.206;2022-07-01T10:36:32;10.88;;;3.98;;
34102;SDS011;20381;54.498;18.206;2022-07-01T10:41:33;12.25;;;4.92;;
34102;SDS011;20381;54.498;18.206;2022-07-01T10:44:12;12.18;;;4.85;;
34102;SDS011;20381;54.498;18.206;2022-07-01T10:49:16;8.48;;;5.53;;
34102;SDS011;20381;54.498;18.206;2022-07-01T10:52:09;15.50;;;6.50;;
34102;SDS011;20381;54.498;18.206;2022-07-01T11:02:33;13.43;;;7.65;;
34102;SDS011;20381;54.498;18.206;2022-07-01T11:07:45;11.48;;;7.35;;
34102;SDS011;20381;54.498;18.206;2022-07-01T11:10:17;13.05;;;7.75;;
34102;SDS011;20381;54.498;18.206;2022-07-01T11:12:44;11.30;;;6.92;;
34102;SDS011;20381;54.498;18.206;2022-07-01T11:15:14;11.70;;;6.90;;
34102;SDS011;20381;54.498;18.206;2022-07-01T11:17:44;12.82;;;6.90;;
34102;SDS011;20381;54.498;18.206;2022-07-01T11:20:13;16.62;;;7.70;;
34102;SDS011;20381;54.498;18.206;2022-07-01T11:22:42;14.70;;;7.42;;
34102;SDS011;20381;54.498;18.206;2022-07-01T11:25:12;11.63;;;7.83;;
34102;SDS011;20381;54.498;18.206;2022-07-01T11:27:44;11.03;;;8.55;;
34102;SDS011;20381;54.498;18.206;2022-07-01T11:30:14;16.23;;;7.70;;
34102;SDS011;20381;54.498;18.206;2022-07-01T11:32:47;11.80;;;7.42;;
34102;SDS011;20381;54.498;18.206;2022-07-01T11:35:21;12.13;;;8.10;;
34102;SDS011;20381;54.498;18.206;2022-07-01T11:38:13;14.07;;;8.38;;
34102;SDS011;20381;54.498;18.206;2022-07-01T11:41:04;15.23;;;7.72;;
34102;SDS011;20381;54.498;18.206;2022-07-01T11:43:35;13.45;;;7.15;;
34102;SDS011;20381;54.498;18.206;2022-07-01T11:46:05;9.30;;;7.33;;
34102;SDS011;20381;54.498;18.206;2022-07-01T11:48:38;16.23;;;7.37;;
34102;SDS011;20381;54.498;18.206;2022-07-01T11:53:46;14.10;;;6.28;;
34102;SDS011;20381;54.498;18.206;2022-07-01T11:56:33;8.68;;;7.30;;
34102;SDS011;20381;54.498;18.206;2022-07-01T11:59:03;9.60;;;6.70;;
34102;SDS011;20381;54.498;18.206;2022-07-01T12:01:31;13.05;;;8.00;;
34102;SDS011;20381;54.498;18.206;2022-07-01T12:04:01;10.43;;;7.33;;
34102;SDS011;20381;54.498;18.206;2022-07-01T12:06:30;10.20;;;7.53;;
34102;SDS011;20381;54.498;18.206;2022-07-01T12:11:46;13.53;;;7.78;;
34102;SDS011;20381;54.498;18.206;2022-07-01T12:14:22;16.97;;;7.58;;
34102;SDS011;20381;54.498;18.206;2022-07-01T12:16:57;12.95;;;7.90;;
34102;SDS011;20381;54.498;18.206;2022-07-01T12:22:07;14.28;;;7.67;;
34102;SDS011;20381;54.498;18.206;2022-07-01T12:24:36;11.03;;;7.10;;
34102;SDS011;20381;54.498;18.206;2022-07-01T12:27:04;8.88;;;6.42;;
34102;SDS011;20381;54.498;18.206;2022-07-01T12:32:17;8.15;;;5.78;;
34102;SDS011;20381;54.498;18.206;2022-07-01T12:34:53;10.88;;;5.83;;
34102;SDS011;20381;54.498;18.206;2022-07-01T12:37:52;9.05;;;6.25;;
34102;SDS011;20381;54.498;18.206;2022-07-01T12:40:24;10.45;;;5.67;;
34102;SDS011;20381;54.498;18.206;2022-07-01T12:42:51;6.20;;;5.17;;
34102;SDS011;20381;54.498;18.206;2022-07-01T12:45:22;12.28;;;5.58;;
34102;SDS011;20381;54.498;18.206;2022-07-01T12:47:49;11.48;;;5.40;;
34102;SDS011;20381;54.498;18.206;2022-07-01T12:50:22;8.28;;;5.12;;
34102;SDS011;20381;54.498;18.206;2022-07-01T12:55:50;11.20;;;5.45;;
34102;SDS011;20381;54.498;18.206;2022-07-01T12:58:20;19.87;;;6.10;;
34102;SDS011;20381;54.498;18.206;2022-07-01T13:00:54;10.68;;;5.50;;
34102;SDS011;20381;54.498;18.206;2022-07-01T13:03:26;8.00;;;6.00;;
34102;SDS011;20381;54.498;18.206;2022-07-01T13:05:57;16.87;;;6.53;;
34102;SDS011;20381;54.498;18.206;2022-07-01T13:08:26;8.38;;;7.03;;
34102;SDS011;20381;54.498;18.206;2022-07-01T13:10:53;9.80;;;7.08;;
34102;SDS011;20381;54.498;18.206;2022-07-01T13:13:20;7.62;;;6.55;;
34102;SDS011;20381;54.498;18.206;2022-07-01T13:15:47;12.70;;;6.87;;
34102;SDS011;20381;54.498;18.206;2022-07-01T13:18:14;8.70;;;6.28;;
34102;SDS011;20381;54.498;18.206;2022-07-01T13:20:42;8.98;;;6.00;;
34102;SDS011;20381;54.498;18.206;2022-07-01T13:23:13;12.23;;;6.62;;
34102;SDS011;20381;54.498;18.206;2022-07-01T13:25:40;7.42;;;6.47;;
34102;SDS011;20381;54.498;18.206;2022-07-01T13:28:07;10.25;;;6.33;;
34102;SDS011;20381;54.498;18.206;2022-07-01T13:30:35;10.00;;;6.15;;
34102;SDS011;20381;54.498;18.206;2022-07-01T13:33:06;11.95;;;6.97;;
34102;SDS011;20381;54.498;18.206;2022-07-01T13:35:35;10.75;;;6.95;;
34102;SDS011;20381;54.498;18.206;2022-07-01T13:38:04;10.93;;;7.35;;
34102;SDS011;20381;54.498;18.206;2022-07-01T13:40:32;9.48;;;7.08;;
34102;SDS011;20381;54.498;18.206;2022-07-01T13:43:03;9.15;;;7.10;;
34102;SDS011;20381;54.498;18.206;2022-07-01T13:45:33;13.95;;;7.03;;
34102;SDS011;20381;54.498;18.206;2022-07-01T13:47:59;8.85;;;7.03;;
34102;SDS011;20381;54.498;18.206;2022-07-01T13:50:26;7.20;;;6.50;;
34102;SDS011;20381;54.498;18.206;2022-07-01T13:52:53;11.30;;;7.10;;
34102;SDS011;20381;54.498;18.206;2022-07-01T13:55:22;8.68;;;6.78;;
34102;SDS011;20381;54.498;18.206;2022-07-01T13:57:49;12.25;;;7.87;;
34102;SDS011;20381;54.498;18.206;2022-07-01T14:00:27;11.45;;;6.83;;
34102;SDS011;20381;54.498;18.206;2022-07-01T14:02:56;9.78;;;7.20;;
34102;SDS011;20381;54.498;18.206;2022-07-01T14:05:27;9.00;;;6.65;;
34102;SDS011;20381;54.498;18.206;2022-07-01T14:10:42;9.38;;;5.95;;
34102;SDS011;20381;54.498;18.206;2022-07-01T14:15:56;9.98;;;5.58;;
34102;SDS011;20381;54.498;18.206;2022-07-01T14:18:23;7.83;;;5.45;;
34102;SDS011;20381;54.498;18.206;2022-07-01T14:20:51;8.60;;;4.08;;
34102;SDS011;20381;54.498;18.206;2022-07-01T14:23:20;8.93;;;3.58;;
34102;SDS011;20381;54.498;18.206;2022-07-01T14:25:49;5.22;;;2.75;;
34102;SDS011;20381;54.498;18.206;2022-07-01T14:28:17;5.50;;;2.50;;
34102;SDS011;20381;54.498;18.206;2022-07-01T14:30:46;5.75;;;2.70;;
34102;SDS011;20381;54.498;18.206;2022-07-01T14:33:15;5.45;;;2.40;;
34102;SDS011;20381;54.498;18.206;2022-07-01T14:36:05;11.88;;;2.20;;
34102;SDS011;20381;54.498;18.206;2022-07-01T14:38:32;7.70;;;3.10;;
34102;SDS011;20381;54.498;18.206;2022-07-01T14:40:59;6.65;;;3.55;;
34102;SDS011;20381;54.498;18.206;2022-07-01T14:43:27;5.47;;;3.02;;
34102;SDS011;20381;54.498;18.206;2022-07-01T14:45:55;6.12;;;3.42;;
34102;SDS011;20381;54.498;18.206;2022-07-01T14:48:23;7.30;;;4.30;;
34102;SDS011;20381;54.498;18.206;2022-07-01T14:50:51;8.50;;;4.15;;
34102;SDS011;20381;54.498;18.206;2022-07-01T14:53:18;16.67;;;4.80;;
34102;SDS011;20381;54.498;18.206;2022-07-01T14:55:46;5.53;;;4.30;;
34102;SDS011;20381;54.498;18.206;2022-07-01T14:58:13;8.23;;;5.10;;
34102;SDS011;20381;54.498;18.206;2022-07-01T15:00:45;10.93;;;4.53;;
34102;SDS011;20381;54.498;18.206;2022-07-01T15:03:15;12.00;;;4.95;;
34102;SDS011;20381;54.498;18.206;2022-07-01T15:05:45;12.28;;;4.75;;
34102;SDS011;20381;54.498;18.206;2022-07-01T15:08:14;9.23;;;4.90;;
34102;SDS011;20381;54.498;18.206;2022-07-01T15:10:42;6.47;;;4.70;;
34102;SDS011;20381;54.498;18.206;2022-07-01T15:16:00;6.62;;;4.53;;
34102;SDS011;20381;54.498;18.206;2022-07-01T15:18:29;7.45;;;4.87;;
34102;SDS011;20381;54.498;18.206;2022-07-01T15:20:58;7.15;;;5.00;;
34102;SDS011;20381;54.498;18.206;2022-07-01T15:23:26;8.58;;;5.00;;
34102;SDS011;20381;54.498;18.206;2022-07-01T15:25:56;7.42;;;4.87;;
34102;SDS011;20381;54.498;18.206;2022-07-01T15:28:26;8.88;;;5.20;;
34102;SDS011;20381;54.498;18.206;2022-07-01T15:30:53;5.40;;;4.62;;
34102;SDS011;20381;54.498;18.206;2022-07-01T15:33:20;8.38;;;4.37;;